createdAt,value
2023-06-04T00:01:40.182Z,67.10
2023-06-04T00:04:07.123Z,67.30
2023-06-04T00:06:34.158Z,67.40
2023-06-04T00:09:01.123Z,67.70
2023-06-04T00:11:29.145Z,67.70
2023-06-04T00:13:57.267Z,68.30
2023-06-04T00:16:25.204Z,67.90
2023-06-04T00:18:53.164Z,68.30
2023-06-04T00:21:20.130Z,68.30
2023-06-04T00:23:49.021Z,68.40
2023-06-04T00:26:16.215Z,68.60
2023-06-04T00:28:47.194Z,68.50
2023-06-04T00:31:14.185Z,68.70
2023-06-04T00:33:41.317Z,68.90
2023-06-04T00:36:14.659Z,69.00
2023-06-04T00:38:41.652Z,69.40
2023-06-04T00:41:09.862Z,69.50
2023-06-04T00:43:39.137Z,69.60
2023-06-04T00:46:07.794Z,69.60
2023-06-04T00:48:34.842Z,69.60
2023-06-04T00:51:01.829Z,69.80
2023-06-04T00:53:29.993Z,70.10
2023-06-04T00:55:56.946Z,70.90
2023-06-04T00:58:25.739Z,70.50
2023-06-04T01:01:00.921Z,70.70
2023-06-04T01:03:32.753Z,70.70
2023-06-04T01:06:29.686Z,70.80
2023-06-04T01:08:59.639Z,70.80
2023-06-04T01:11:35.753Z,71.40
2023-06-04T01:14:04.638Z,71.70
2023-06-04T01:16:41.959Z,72.00
2023-06-04T01:19:44.206Z,72.30
2023-06-04T01:22:36.738Z,72.30
2023-06-04T01:25:24.780Z,72.60
2023-06-04T01:27:56.795Z,72.90
2023-06-04T01:30:32.905Z,73.40
2023-06-04T01:33:04.673Z,74.40
2023-06-04T01:35:32.502Z,74.00
2023-06-04T01:37:59.454Z,74.10
2023-06-04T01:40:27.999Z,74.30
2023-06-04T01:42:56.883Z,74.60
2023-06-04T01:45:24.968Z,74.70
2023-06-04T01:47:53.262Z,75.10
2023-06-04T01:50:20.484Z,75.50
2023-06-04T01:52:47.488Z,75.80
2023-06-04T01:55:15.866Z,76.00
2023-06-04T01:57:45.243Z,76.40
2023-06-04T02:00:13.372Z,76.90
2023-06-04T02:02:42.902Z,77.30
2023-06-04T02:05:11.386Z,77.60
2023-06-04T02:07:40.234Z,78.10
2023-06-04T02:10:18.730Z,78.70
2023-06-04T02:12:59.590Z,79.30
2023-06-04T02:15:28.649Z,80.30
2023-06-04T02:18:00.916Z,81.00
2023-06-04T02:20:28.817Z,82.80
2023-06-04T02:22:56.475Z,82.70
2023-06-04T02:25:24.829Z,82.90
2023-06-04T02:27:51.820Z,83.10
2023-06-04T02:30:19.198Z,83.50
2023-06-04T02:32:49.853Z,84.30
2023-06-04T02:35:19.218Z,85.80
2023-06-04T02:37:46.449Z,85.40
2023-06-04T02:40:13.465Z,85.90
2023-06-04T02:42:41.406Z,86.00
2023-06-04T02:45:09.479Z,86.40
2023-06-04T02:47:38.915Z,86.80
2023-06-04T02:50:06.666Z,87.20
2023-06-04T02:52:38.313Z,87.50
2023-06-04T02:55:08.600Z,88.00
2023-06-04T02:57:37.820Z,88.20
2023-06-04T03:00:13.604Z,88.50
2023-06-04T03:02:44.489Z,89.40
2023-06-04T03:05:13.881Z,89.90
2023-06-04T03:07:44.648Z,90.20
2023-06-04T03:10:13.282Z,90.40
2023-06-04T03:12:40.676Z,90.60
2023-06-04T03:15:08.232Z,90.80
2023-06-04T03:17:35.238Z,91.10
2023-06-04T03:20:02.495Z,91.40
2023-06-04T03:22:32.371Z,91.60
2023-06-04T03:24:59.349Z,91.80
2023-06-04T03:27:27.536Z,92.10
2023-06-04T03:29:54.481Z,92.50
2023-06-04T03:32:21.770Z,92.70
2023-06-04T03:34:49.145Z,93.10
2023-06-04T03:37:18.756Z,93.30
2023-06-04T03:39:45.747Z,93.50
2023-06-04T03:42:16.140Z,93.80
2023-06-04T03:44:43.689Z,94.10
2023-06-04T03:47:12.326Z,94.50
2023-06-04T03:49:42.056Z,94.80
2023-06-04T03:52:09.151Z,95.00
2023-06-04T03:54:37.932Z,95.60
2023-06-04T03:57:05.487Z,95.80
2023-06-04T03:59:32.489Z,96.10
2023-06-04T04:01:59.745Z,96.40
2023-06-04T04:04:28.425Z,96.70
2023-06-04T04:06:55.549Z,97.00
2023-06-04T04:09:22.553Z,97.30
2023-06-04T04:11:49.390Z,97.70
2023-06-04T04:14:16.374Z,98.20
2023-06-04T04:16:43.744Z,98.50
2023-06-04T04:19:12.958Z,99.00
2023-06-04T04:21:40.450Z,99.30
2023-06-04T04:24:09.120Z,99.60
2023-06-04T04:26:38.678Z,99.90
2023-06-04T04:29:05.737Z,99.90
2023-06-04T04:31:37.606Z,99.90
2023-06-04T04:34:09.663Z,99.90
2023-06-04T04:36:41.531Z,99.90
2023-06-04T04:39:11.035Z,99.90
2023-06-04T04:41:39.187Z,99.90
2023-06-04T04:44:06.984Z,99.90
2023-06-04T04:46:34.364Z,99.90
2023-06-04T04:49:01.340Z,99.90
2023-06-04T04:51:29.092Z,99.90
2023-06-04T04:54:01.714Z,99.90
2023-06-04T04:56:38.322Z,99.90
2023-06-04T04:59:06.086Z,99.90
2023-06-04T05:01:35.104Z,99.90
2023-06-04T05:04:03.501Z,99.90
2023-06-04T05:06:31.967Z,99.90
2023-06-04T05:09:01.164Z,99.90
2023-06-04T05:11:29.830Z,99.90
2023-06-04T05:13:58.780Z,99.90
2023-06-04T05:16:26.283Z,99.90
2023-06-04T05:18:53.785Z,99.90
2023-06-04T05:21:24.177Z,99.90
2023-06-04T05:23:57.340Z,99.90
2023-06-04T05:26:29.369Z,99.90
2023-06-04T05:29:00.370Z,99.90
2023-06-04T05:31:34.362Z,99.90
2023-06-04T05:34:08.491Z,99.90
2023-06-04T05:36:40.386Z,99.90
2023-06-04T05:39:10.463Z,99.90
2023-06-04T05:41:46.537Z,99.90
2023-06-04T05:44:16.276Z,99.90
2023-06-04T05:46:43.496Z,99.90
2023-06-04T05:49:11.339Z,99.90
2023-06-04T05:51:38.636Z,99.90
2023-06-04T05:54:05.897Z,99.90
2023-06-04T05:56:36.496Z,99.90
2023-06-04T05:59:03.565Z,99.90
2023-06-04T06:01:30.782Z,99.90
2023-06-04T06:03:58.159Z,99.90
2023-06-04T06:06:30.949Z,99.90
2023-06-04T06:09:22.127Z,99.90
2023-06-04T06:11:52.862Z,99.90
2023-06-04T06:15:11.845Z,99.90
2023-06-04T06:18:35.549Z,99.90
2023-06-04T06:21:02.787Z,99.90
2023-06-04T06:23:30.062Z,99.90
2023-06-04T06:25:58.195Z,99.90
2023-06-04T06:28:32.564Z,99.90
2023-06-04T06:30:59.968Z,99.90
2023-06-04T06:33:27.136Z,99.90
2023-06-04T06:35:55.548Z,99.90
2023-06-04T06:38:24.488Z,99.90
2023-06-04T06:40:52.095Z,99.90
2023-06-04T06:43:22.161Z,99.90
2023-06-04T06:45:50.764Z,99.90
2023-06-04T06:48:38.582Z,99.90
2023-06-04T06:51:05.819Z,99.90
2023-06-04T06:53:34.042Z,99.40
2023-06-04T06:56:01.231Z,99.30
2023-06-04T06:58:31.993Z,99.60
2023-06-04T07:01:00.433Z,99.10
2023-06-04T07:03:27.685Z,98.70
2023-06-04T07:06:01.560Z,98.90
2023-06-04T07:08:29.601Z,98.70
2023-06-04T07:10:59.447Z,98.50
2023-06-04T07:13:28.622Z,97.60
2023-06-04T07:15:59.974Z,96.80
2023-06-04T07:18:41.014Z,96.60
2023-06-04T07:21:11.210Z,96.50
2023-06-04T07:23:38.250Z,96.60
2023-06-04T07:26:07.848Z,96.50
2023-06-04T07:28:36.344Z,95.70
2023-06-04T07:31:06.962Z,95.70
2023-06-04T07:33:44.361Z,95.80
2023-06-04T07:36:17.332Z,95.80
2023-06-04T07:39:01.530Z,95.50
2023-06-04T07:41:32.106Z,95.70
2023-06-04T07:43:58.994Z,95.30
2023-06-04T07:46:27.126Z,95.30
2023-06-04T07:48:58.004Z,95.20
2023-06-04T07:51:26.649Z,94.70
2023-06-04T07:53:53.769Z,94.60
2023-06-04T07:56:21.879Z,94.40
2023-06-04T07:58:50.390Z,94.20
2023-06-04T08:01:18.589Z,94.00
2023-06-04T08:03:47.091Z,93.60
2023-06-04T08:06:16.403Z,93.60
2023-06-04T08:08:49.607Z,93.40
2023-06-04T08:11:19.313Z,93.20
2023-06-04T08:13:46.311Z,93.10
2023-06-04T08:16:13.475Z,93.10
2023-06-04T08:18:42.216Z,93.00
2023-06-04T08:21:18.083Z,92.60
2023-06-04T08:23:45.129Z,92.00
2023-06-04T08:26:12.151Z,91.40
2023-06-04T08:28:41.305Z,91.10
2023-06-04T08:31:08.929Z,90.80
2023-06-04T08:33:38.096Z,90.80
2023-06-04T08:36:06.211Z,90.40
2023-06-04T08:38:34.194Z,90.30
2023-06-04T08:41:16.607Z,90.00
2023-06-04T08:43:46.671Z,88.40
2023-06-04T08:46:15.894Z,88.80
2023-06-04T08:48:46.131Z,88.90
2023-06-04T08:51:13.668Z,89.10
2023-06-04T08:53:49.036Z,88.00
2023-06-04T08:56:16.335Z,87.30
2023-06-04T08:58:44.195Z,85.40
2023-06-04T09:01:12.131Z,85.70
2023-06-04T09:03:39.962Z,85.30
2023-06-04T09:06:08.253Z,84.30
2023-06-04T09:08:39.166Z,84.30
2023-06-04T09:11:11.141Z,83.00
2023-06-04T09:13:39.639Z,83.00
2023-06-04T09:16:08.599Z,82.50
2023-06-04T09:18:35.929Z,82.10
2023-06-04T09:21:07.001Z,82.60
2023-06-04T09:23:47.300Z,82.60
2023-06-04T09:26:15.230Z,81.80
2023-06-04T09:28:43.253Z,81.50
2023-06-04T09:31:16.642Z,80.30
2023-06-04T09:33:49.039Z,79.00
2023-06-04T09:36:17.382Z,78.10
2023-06-04T09:38:45.122Z,78.00
2023-06-04T09:41:18.435Z,78.20
2023-06-04T09:43:45.344Z,77.90
2023-06-04T09:46:17.826Z,77.40
2023-06-04T09:48:46.021Z,77.00
2023-06-04T09:51:16.632Z,75.80
2023-06-04T09:53:54.182Z,75.90
2023-06-04T09:56:22.340Z,75.40
2023-06-04T09:58:50.636Z,75.70
2023-06-04T10:01:17.914Z,75.50
2023-06-04T10:03:49.690Z,76.10
2023-06-04T10:06:20.530Z,76.10
2023-06-04T10:08:51.716Z,76.10
2023-06-04T10:11:32.285Z,74.90
2023-06-04T10:14:07.476Z,75.30
2023-06-04T10:16:39.752Z,75.40
2023-06-04T10:19:08.677Z,75.40
2023-06-04T10:21:36.904Z,73.20
2023-06-04T10:24:16.606Z,73.00
2023-06-04T10:26:48.526Z,72.30
2023-06-04T10:29:15.937Z,73.00
2023-06-04T10:31:45.200Z,72.00
2023-06-04T10:34:14.521Z,70.80
2023-06-04T10:36:46.935Z,69.50
2023-06-04T10:39:14.028Z,69.40
2023-06-04T10:41:41.336Z,70.30
2023-06-04T10:44:08.373Z,70.20
2023-06-04T10:46:44.436Z,70.30
2023-06-04T10:49:16.314Z,70.70
2023-06-04T10:51:45.065Z,69.60
2023-06-04T10:54:25.201Z,68.70
2023-06-04T10:56:55.461Z,68.60
2023-06-04T10:59:25.629Z,67.90
2023-06-04T11:01:53.100Z,68.10
2023-06-04T11:04:25.023Z,65.60
2023-06-04T11:07:12.183Z,66.60
2023-06-04T11:09:49.503Z,66.90
2023-06-04T11:12:20.372Z,65.90
2023-06-04T11:15:16.138Z,66.50
2023-06-04T11:17:59.614Z,64.60
2023-06-04T11:20:27.100Z,64.90
2023-06-04T11:22:58.619Z,64.40
2023-06-04T11:25:27.427Z,65.50
2023-06-04T11:27:59.858Z,65.70
2023-06-04T11:30:30.429Z,64.40
2023-06-04T11:33:09.221Z,64.20
2023-06-04T11:35:45.660Z,62.60
2023-06-04T11:38:12.651Z,60.00
2023-06-04T11:40:39.974Z,57.50
2023-06-04T11:43:10.615Z,57.40
2023-06-04T11:45:38.449Z,56.80
2023-06-04T11:48:07.054Z,56.40
2023-06-04T11:50:41.666Z,56.30
2023-06-04T11:53:09.366Z,55.60
2023-06-04T11:55:39.127Z,56.00
2023-06-04T11:58:07.567Z,55.70
2023-06-04T12:00:35.813Z,56.10
2023-06-04T12:03:03.112Z,56.30
2023-06-04T12:05:36.022Z,54.90
2023-06-04T12:08:11.023Z,54.00
2023-06-04T12:10:44.556Z,54.70
2023-06-04T12:13:12.538Z,54.40
2023-06-04T12:15:39.885Z,53.90
2023-06-04T12:18:11.158Z,54.20
2023-06-04T12:20:40.029Z,54.60
2023-06-04T12:23:08.494Z,53.90
2023-06-04T12:25:39.023Z,53.10
2023-06-04T12:28:09.573Z,52.10
2023-06-04T12:30:38.638Z,51.90
2023-06-04T12:33:05.874Z,51.90
2023-06-04T12:35:34.790Z,51.90
2023-06-04T12:38:06.806Z,51.70
2023-06-04T12:40:34.840Z,51.60
2023-06-04T12:43:02.041Z,51.00
2023-06-04T12:45:31.171Z,51.20
2023-06-04T12:48:04.173Z,51.20
2023-06-04T12:50:34.931Z,50.50
2023-06-04T12:53:02.196Z,50.60
2023-06-04T12:55:30.578Z,50.70
2023-06-04T12:58:01.110Z,50.40
2023-06-04T13:00:30.747Z,49.80
2023-06-04T13:02:58.915Z,50.60
2023-06-04T13:05:28.358Z,49.90
2023-06-04T13:07:57.567Z,49.00
2023-06-04T13:10:24.802Z,48.70
2023-06-04T13:12:52.788Z,48.30
2023-06-04T13:15:21.002Z,48.30
2023-06-04T13:17:48.078Z,47.30
2023-06-04T13:20:15.226Z,48.60
2023-06-04T13:22:47.393Z,48.10
2023-06-04T13:25:14.642Z,47.40
2023-06-04T13:27:43.232Z,46.90
2023-06-04T13:30:10.976Z,46.40
2023-06-04T13:32:38.507Z,46.40
2023-06-04T13:35:07.220Z,46.40
2023-06-04T13:37:35.829Z,45.60
2023-06-04T13:40:02.889Z,45.40
2023-06-04T13:42:29.934Z,45.60
2023-06-04T13:54:53.910Z,44.40
2023-06-04T14:08:36.971Z,43.10
2023-06-04T14:11:04.452Z,41.90
2023-06-04T14:13:34.480Z,41.60
2023-06-04T14:16:13.667Z,41.90
2023-06-04T14:18:42.620Z,42.20
2023-06-04T14:21:11.390Z,42.20
2023-06-04T14:23:39.710Z,42.00
2023-06-04T14:26:08.988Z,42.00
2023-06-04T14:28:37.298Z,41.30
2023-06-04T14:31:04.487Z,41.00
2023-06-04T14:33:33.505Z,40.40
2023-06-04T14:36:00.491Z,40.10
2023-06-04T14:38:29.423Z,39.90
2023-06-04T14:40:57.503Z,39.70
2023-06-04T14:43:26.662Z,39.00
2023-06-04T14:46:02.919Z,38.50
2023-06-04T14:48:31.032Z,38.30
2023-06-04T14:50:58.233Z,38.70
2023-06-04T14:53:25.202Z,38.40
2023-06-04T14:55:57.181Z,38.30
2023-06-04T14:58:27.110Z,38.00
2023-06-04T15:00:54.639Z,37.80
2023-06-04T15:03:22.745Z,37.40
2023-06-04T15:05:50.799Z,37.70
2023-06-04T15:08:19.449Z,37.80
2023-06-04T15:10:46.438Z,37.80
2023-06-04T15:13:13.412Z,37.80
2023-06-04T15:15:41.557Z,38.20
2023-06-04T15:18:09.656Z,38.70
2023-06-04T15:20:36.832Z,39.40
2023-06-04T15:23:03.781Z,40.80
2023-06-04T15:25:30.932Z,41.40
2023-06-04T15:28:00.193Z,42.00
2023-06-04T15:30:28.197Z,42.50
2023-06-04T15:32:55.580Z,42.80
2023-06-04T15:35:22.479Z,42.80
2023-06-04T15:37:49.469Z,42.80
2023-06-04T15:40:16.442Z,43.30
2023-06-04T15:42:43.378Z,43.80
2023-06-04T15:45:10.860Z,44.10
2023-06-04T15:47:37.947Z,44.40
2023-06-04T15:50:05.431Z,44.40
2023-06-04T15:52:32.369Z,44.60
2023-06-04T15:55:00.438Z,44.70
2023-06-04T15:57:28.677Z,44.80
2023-06-04T15:59:56.742Z,44.80
2023-06-04T16:02:23.925Z,44.90
2023-06-04T16:04:50.980Z,44.40
2023-06-04T16:07:20.020Z,44.70
2023-06-04T16:09:50.759Z,44.90
2023-06-04T16:12:19.836Z,44.70
2023-06-04T16:14:49.729Z,44.40
2023-06-04T16:17:16.678Z,44.50
2023-06-04T16:19:45.722Z,44.90
2023-06-04T16:22:16.783Z,44.50
2023-06-04T16:24:51.977Z,44.60
2023-06-04T16:27:18.984Z,45.00
2023-06-04T16:29:47.872Z,44.90
2023-06-04T16:32:16.440Z,45.20
2023-06-04T16:34:43.852Z,45.50
2023-06-04T16:37:11.092Z,45.30
2023-06-04T16:39:38.340Z,45.80
2023-06-04T16:42:05.850Z,45.80
2023-06-04T16:44:32.888Z,44.70
2023-06-04T16:46:59.831Z,44.10
2023-06-04T16:49:26.985Z,43.60
2023-06-04T16:51:54.627Z,44.10
2023-06-04T16:54:22.626Z,44.40
2023-06-04T16:56:50.702Z,45.30
2023-06-04T16:59:18.721Z,45.20
2023-06-04T17:01:45.858Z,46.20
2023-06-04T17:04:12.788Z,47.20
2023-06-04T17:06:41.526Z,47.80
2023-06-04T17:09:08.482Z,48.20
2023-06-04T17:11:38.512Z,48.60
2023-06-04T17:14:07.065Z,48.70
2023-06-04T17:16:38.032Z,48.90
2023-06-04T17:19:13.691Z,49.10
2023-06-04T17:21:40.820Z,49.30
2023-06-04T17:24:10.040Z,49.40
2023-06-04T17:26:37.434Z,49.50
2023-06-04T17:29:08.225Z,49.80
2023-06-04T17:31:38.138Z,50.20
2023-06-04T17:34:05.479Z,50.20
2023-06-04T17:36:36.093Z,50.50
2023-06-04T17:39:03.080Z,50.60
2023-06-04T17:41:30.171Z,51.10
2023-06-04T17:43:57.225Z,51.40
2023-06-04T17:46:25.305Z,51.60
2023-06-04T17:48:56.486Z,51.80
2023-06-04T17:51:26.394Z,51.70
2023-06-04T17:53:53.551Z,52.10
2023-06-04T17:56:22.145Z,52.40
2023-06-04T17:58:49.054Z,52.60
2023-06-04T18:01:16.596Z,52.70
2023-06-04T18:03:44.024Z,52.80
2023-06-04T18:06:12.334Z,52.80
2023-06-04T18:08:41.874Z,52.60
2023-06-04T18:11:09.248Z,52.20
2023-06-04T18:13:37.318Z,52.50
2023-06-04T18:16:04.758Z,52.80
2023-06-04T18:18:31.804Z,53.10
2023-06-04T18:20:59.776Z,53.00
2023-06-04T18:23:26.794Z,53.20
2023-06-04T18:25:53.905Z,53.30
2023-06-04T18:28:22.262Z,53.70
2023-06-04T18:30:51.236Z,54.00
2023-06-04T18:33:24.039Z,54.20
2023-06-04T18:35:53.082Z,54.00
2023-06-04T18:38:21.163Z,54.10
2023-06-04T18:40:48.317Z,54.40
2023-06-04T18:43:16.555Z,54.80
2023-06-04T18:45:43.567Z,55.50
2023-06-04T18:48:10.644Z,55.00
2023-06-04T18:50:37.965Z,55.20
2023-06-04T18:53:04.898Z,55.20
2023-06-04T18:55:31.894Z,55.40
2023-06-04T18:57:58.911Z,55.80
2023-06-04T19:00:26.298Z,56.00
2023-06-04T19:02:56.424Z,56.10
2023-06-04T19:05:27.708Z,56.70
2023-06-04T19:07:54.700Z,56.20
2023-06-04T19:10:21.774Z,57.00
2023-06-04T19:12:48.752Z,56.60
2023-06-04T19:15:17.931Z,57.00
2023-06-04T19:17:45.135Z,61.90
2023-06-04T19:20:13.666Z,65.40
2023-06-04T19:22:40.721Z,67.30
2023-06-04T19:25:09.145Z,68.90
2023-06-04T19:27:36.471Z,70.70
2023-06-04T19:30:03.755Z,71.50
2023-06-04T19:32:30.921Z,72.20
2023-06-04T19:34:57.830Z,72.60
2023-06-04T19:37:24.881Z,73.30
2023-06-04T19:39:56.618Z,73.80
2023-06-04T19:42:25.596Z,74.80
2023-06-04T19:44:52.876Z,75.50
2023-06-04T19:47:24.596Z,76.40
2023-06-04T19:49:52.105Z,76.60
2023-06-04T19:52:23.123Z,77.00
2023-06-04T19:54:50.735Z,77.80
2023-06-04T19:57:19.515Z,78.50
2023-06-04T19:59:47.946Z,79.10
2023-06-04T20:02:16.511Z,79.70
2023-06-04T20:04:43.560Z,80.40
2023-06-04T20:07:10.995Z,81.00
2023-06-04T20:09:37.985Z,82.50
2023-06-04T20:12:05.287Z,82.40
2023-06-04T20:14:33.309Z,83.00
2023-06-04T20:17:00.660Z,83.50
2023-06-04T20:19:29.036Z,84.30
2023-06-04T20:22:00.706Z,84.80
2023-06-04T20:24:28.682Z,85.30
2023-06-04T20:26:58.157Z,86.00
2023-06-04T20:29:28.515Z,86.60
2023-06-04T20:31:55.621Z,87.40
2023-06-04T20:34:23.808Z,87.80
2023-06-04T20:36:56.208Z,88.10
2023-06-04T20:39:24.664Z,89.10
2023-06-04T20:41:51.628Z,90.10
2023-06-04T20:44:21.040Z,90.50
2023-06-04T20:46:51.204Z,90.70
2023-06-04T20:49:20.339Z,91.10
2023-06-04T20:51:48.429Z,91.30
2023-06-04T20:54:15.669Z,92.00
2023-06-04T20:56:44.447Z,92.00
2023-06-04T20:59:14.212Z,92.30
2023-06-04T21:01:41.273Z,92.60
2023-06-04T21:04:09.347Z,93.20
2023-06-04T21:06:36.531Z,93.50
2023-06-04T21:09:06.860Z,93.90
2023-06-04T21:11:33.992Z,94.30
2023-06-04T21:14:02.127Z,94.80
2023-06-04T21:16:29.108Z,95.30
2023-06-04T21:19:04.721Z,95.90
2023-06-04T21:21:32.849Z,96.50
2023-06-04T21:24:01.327Z,97.20
2023-06-04T21:26:31.398Z,98.10
2023-06-04T21:28:59.398Z,98.90
2023-06-04T21:31:27.650Z,99.90
2023-06-04T21:33:55.608Z,99.90
2023-06-04T21:36:24.615Z,99.90
2023-06-04T21:38:52.957Z,99.90
2023-06-04T21:41:25.043Z,99.90
2023-06-04T21:43:53.204Z,99.90
2023-06-04T21:46:25.775Z,99.90
2023-06-04T21:48:54.226Z,99.90
2023-06-04T21:51:22.513Z,99.90
2023-06-04T21:53:52.298Z,99.90
2023-06-04T21:56:19.277Z,99.90
2023-06-04T21:58:46.369Z,99.90
2023-06-04T22:01:13.475Z,99.90
2023-06-04T22:03:42.224Z,99.90
2023-06-04T22:06:09.427Z,99.90
2023-06-04T22:08:36.450Z,99.90
2023-06-04T22:11:03.733Z,99.90
2023-06-04T22:13:32.926Z,99.90
2023-06-04T22:16:02.252Z,99.90
2023-06-04T22:18:44.371Z,99.90
2023-06-04T22:21:23.069Z,99.90
2023-06-04T22:23:51.350Z,99.90
2023-06-04T22:26:32.954Z,99.90
2023-06-04T22:29:05.648Z,99.90
2023-06-04T22:31:32.880Z,99.90
2023-06-04T22:34:00.165Z,99.90
2023-06-04T22:36:27.250Z,99.90
2023-06-04T22:38:56.656Z,99.90
2023-06-04T22:41:24.733Z,99.90
2023-06-04T22:43:52.719Z,99.90
2023-06-04T22:46:19.826Z,99.90
2023-06-04T22:48:46.834Z,99.90
2023-06-04T22:51:15.479Z,99.90
2023-06-04T22:53:43.791Z,99.90
2023-06-04T22:56:12.810Z,99.90
2023-06-04T22:58:41.097Z,99.90
2023-06-04T23:01:08.841Z,99.90
2023-06-04T23:03:39.369Z,99.90
2023-06-04T23:06:07.338Z,99.90
2023-06-04T23:08:34.417Z,99.90
2023-06-04T23:11:02.347Z,99.90
2023-06-04T23:13:29.326Z,99.90
2023-06-04T23:15:58.161Z,99.90
2023-06-04T23:18:25.482Z,99.90
2023-06-04T23:20:58.456Z,99.90
2023-06-04T23:23:28.062Z,99.90
2023-06-04T23:25:56.101Z,99.90
2023-06-04T23:28:23.149Z,99.90
2023-06-04T23:30:51.180Z,99.90
2023-06-04T23:33:19.267Z,99.90
2023-06-04T23:35:47.816Z,99.90
2023-06-04T23:38:18.035Z,99.90
2023-06-04T23:40:45.999Z,99.90
2023-06-04T23:43:13.072Z,99.90
2023-06-04T23:45:41.372Z,99.90
2023-06-04T23:48:08.525Z,99.90
2023-06-04T23:50:41.497Z,99.90
2023-06-04T23:53:08.613Z,99.90
2023-06-04T23:55:35.875Z,99.90
2023-06-04T23:58:03.824Z,99.90
